createdAt,value
2023-04-21T00:01:38.873Z,100761.84
2023-04-21T00:04:24.361Z,100766.25
2023-04-21T00:07:09.512Z,100756.78
2023-04-21T00:09:54.869Z,100755.88
2023-04-21T00:12:40.323Z,100760.13
2023-04-21T00:15:25.905Z,100752.50
2023-04-21T00:18:11.182Z,100757.59
2023-04-21T00:20:57.489Z,100752.56
2023-04-21T00:23:42.296Z,100754.34
2023-04-21T00:26:27.646Z,100745.63
2023-04-21T00:29:13.001Z,100748.34
2023-04-21T00:31:58.307Z,100738.97
2023-04-21T00:34:43.639Z,100739.84
2023-04-21T00:37:29.070Z,100733.84
2023-04-21T00:40:14.143Z,100724.50
2023-04-21T00:42:59.588Z,100730.50
2023-04-21T00:45:46.066Z,100722.84
2023-04-21T00:48:31.593Z,100713.50
2023-04-21T00:51:17.370Z,100712.59
2023-04-21T00:54:05.265Z,100712.63
2023-04-21T00:56:50.445Z,100711.72
2023-04-21T00:59:35.617Z,100712.75
2023-04-21T01:02:22.451Z,100714.38
2023-04-21T01:05:08.624Z,100710.19
2023-04-21T01:07:53.916Z,100705.88
2023-04-21T01:10:38.975Z,100708.53
2023-04-21T01:13:24.427Z,100711.16
2023-04-21T01:16:16.539Z,100710.19
2023-04-21T01:19:02.146Z,100710.19
2023-04-21T01:21:47.307Z,100715.47
2023-04-21T01:24:46.289Z,100717.25
2023-04-21T01:27:31.616Z,100704.34
2023-04-21T01:30:16.812Z,100720.81
2023-04-21T01:33:02.359Z,100724.13
2023-04-21T01:35:47.531Z,100739.50
2023-04-21T01:38:32.714Z,100741.72
2023-04-21T01:41:18.395Z,100747.47
2023-04-21T01:44:03.776Z,100744.81
2023-04-21T01:46:48.793Z,100740.59
2023-04-21T01:49:33.775Z,100741.72
2023-04-21T01:52:19.345Z,100731.56
2023-04-21T01:55:04.929Z,100742.03
2023-04-21T01:57:51.322Z,100737.84
2023-04-21T02:00:36.202Z,100737.06
2023-04-21T02:03:21.778Z,100743.81
2023-04-21T02:06:07.434Z,100736.81
2023-04-21T02:08:52.542Z,100740.84
2023-04-21T02:11:37.973Z,100745.16
2023-04-21T02:14:26.880Z,100738.56
2023-04-21T02:17:12.236Z,100738.50
2023-04-21T02:19:57.695Z,100744.84
2023-04-21T02:22:43.139Z,100743.38
2023-04-21T02:25:28.545Z,100746.91
2023-04-21T02:28:13.427Z,100735.69
2023-04-21T02:30:58.340Z,100735.44
2023-04-21T02:33:43.860Z,100736.25
2023-04-21T02:36:29.110Z,100736.31
2023-04-21T02:39:14.407Z,100745.00
2023-04-21T02:41:59.688Z,100739.09
2023-04-21T02:44:45.032Z,100735.69
2023-04-21T02:47:29.927Z,100735.88
2023-04-21T02:50:15.461Z,100729.06
2023-04-21T02:53:00.641Z,100726.44
2023-04-21T02:55:45.878Z,100735.09
2023-04-21T02:58:31.164Z,100731.84
2023-04-21T03:01:16.066Z,100731.81
2023-04-21T03:04:01.449Z,100726.75
2023-04-21T03:06:46.757Z,100726.00
2023-04-21T03:09:32.275Z,100714.84
2023-04-21T03:12:17.620Z,100719.34
2023-04-21T03:15:03.415Z,100715.78
2023-04-21T03:17:48.316Z,100704.69
2023-04-21T03:20:33.813Z,100713.47
2023-04-21T03:23:19.243Z,100705.59
2023-04-21T03:26:10.180Z,100707.41
2023-04-21T03:28:55.081Z,100700.59
2023-04-21T03:31:40.033Z,100704.00
2023-04-21T03:34:25.364Z,100700.53
2023-04-21T03:37:10.293Z,100693.53
2023-04-21T03:39:55.698Z,100701.34
2023-04-21T03:42:41.488Z,100695.41
2023-04-21T03:45:26.483Z,100691.00
2023-04-21T03:48:11.546Z,100693.44
2023-04-21T03:50:56.934Z,100690.94
2023-04-21T03:53:42.442Z,100696.88
2023-04-21T03:56:27.788Z,100704.56
2023-04-21T03:59:13.197Z,100704.63
2023-04-21T04:01:58.261Z,100704.34
2023-04-21T04:04:43.875Z,100703.34
2023-04-21T04:07:28.937Z,100703.16
2023-04-21T04:10:14.262Z,100701.47
2023-04-21T04:12:59.670Z,100702.22
2023-04-21T04:15:45.121Z,100701.25
2023-04-21T04:18:30.330Z,100713.25
2023-04-21T04:21:15.854Z,100708.88
2023-04-21T04:24:00.979Z,100713.13
2023-04-21T04:26:46.386Z,100714.84
2023-04-21T04:29:32.233Z,100714.59
2023-04-21T04:32:17.370Z,100718.06
2023-04-21T04:35:02.269Z,100716.25
2023-04-21T04:37:47.191Z,100720.44
2023-04-21T04:40:32.026Z,100721.44
2023-04-21T04:43:17.392Z,100721.38
2023-04-21T04:46:03.425Z,100724.06
2023-04-21T04:48:48.393Z,100722.41
2023-04-21T04:51:33.631Z,100721.59
2023-04-21T04:54:19.414Z,100727.41
2023-04-21T04:57:04.761Z,100733.63
2023-04-21T04:59:55.064Z,100727.44
2023-04-21T05:02:41.128Z,100724.06
2023-04-21T05:05:26.464Z,100724.94
2023-04-21T05:08:11.977Z,100731.88
2023-04-21T05:10:57.191Z,100732.88
2023-04-21T05:13:42.527Z,100744.25
2023-04-21T05:16:28.017Z,100740.41
2023-04-21T05:19:13.056Z,100729.91
2023-04-21T05:22:00.957Z,100729.09
2023-04-21T05:24:46.325Z,100730.13
2023-04-21T05:27:31.753Z,100726.81
2023-04-21T05:30:17.185Z,100725.19
2023-04-21T05:33:02.643Z,100723.53
2023-04-21T05:35:47.814Z,100724.63
2023-04-21T05:38:33.070Z,100713.50
2023-04-21T05:41:18.368Z,100705.88
2023-04-21T05:44:03.867Z,100713.75
2023-04-21T05:46:49.192Z,100710.41
2023-04-21T05:49:34.764Z,100712.28
2023-04-21T05:52:22.688Z,100708.94
2023-04-21T05:55:08.025Z,100701.31
2023-04-21T05:57:52.982Z,100704.19
2023-04-21T06:00:37.752Z,100699.75
2023-04-21T06:03:23.351Z,100693.94
2023-04-21T06:06:08.919Z,100693.84
2023-04-21T06:08:54.432Z,100692.25
2023-04-21T06:11:39.481Z,100689.81
2023-04-21T06:14:24.865Z,100680.44
2023-04-21T06:17:10.077Z,100669.38
2023-04-21T06:19:55.464Z,100663.44
2023-04-21T06:22:40.738Z,100658.53
2023-04-21T06:25:26.142Z,100653.69
2023-04-21T06:28:11.372Z,100635.78
2023-04-21T06:30:56.632Z,100624.81
2023-04-21T06:33:42.041Z,100605.91
2023-04-21T06:36:27.307Z,100595.53
2023-04-21T06:39:12.666Z,100597.31
2023-04-21T06:41:58.121Z,100594.09
2023-04-21T06:44:43.474Z,100583.72
2023-04-21T06:47:28.230Z,100578.66
2023-04-21T06:50:13.619Z,100577.06
2023-04-21T06:52:58.365Z,100563.19
2023-04-21T06:55:43.878Z,100567.56
2023-04-21T06:58:29.085Z,100568.41
2023-04-21T07:01:14.014Z,100569.31
2023-04-21T07:03:59.686Z,100568.47
2023-04-21T07:06:44.868Z,100561.56
2023-04-21T07:09:30.088Z,100565.88
2023-04-21T07:12:15.065Z,100560.72
2023-04-21T07:15:00.170Z,100545.09
2023-04-21T07:17:45.023Z,100549.47
2023-04-21T07:20:30.479Z,100539.06
2023-04-21T07:23:15.365Z,100542.53
2023-04-21T07:26:00.653Z,100532.22
2023-04-21T07:28:45.557Z,100534.81
2023-04-21T07:31:30.519Z,100533.16
2023-04-21T07:34:15.886Z,100531.44
2023-04-21T07:37:00.710Z,100521.88
2023-04-21T07:39:46.042Z,100533.19
2023-04-21T07:42:31.518Z,100541.88
2023-04-21T07:45:16.970Z,100530.59
2023-04-21T07:48:02.334Z,100532.34
2023-04-21T07:50:47.669Z,100532.31
2023-04-21T07:53:33.028Z,100515.88
2023-04-21T07:56:18.365Z,100511.53
2023-04-21T07:59:03.921Z,100519.31
2023-04-21T08:01:48.855Z,100508.03
2023-04-21T08:04:34.666Z,100510.63
2023-04-21T08:07:19.887Z,100515.84
2023-04-21T08:10:06.881Z,100520.16
2023-04-21T08:12:52.000Z,100531.47
2023-04-21T08:15:37.032Z,100507.13
2023-04-21T08:18:22.730Z,100508.91
2023-04-21T08:21:08.262Z,100518.47
2023-04-21T08:23:53.661Z,100528.00
2023-04-21T08:26:39.208Z,100521.03
2023-04-21T08:29:24.419Z,100541.81
2023-04-21T08:32:09.241Z,100517.97
2023-04-21T08:34:55.078Z,100481.22
2023-04-21T08:37:40.192Z,100448.13
2023-04-21T08:40:33.615Z,100462.78
2023-04-21T08:43:19.426Z,100452.56
2023-04-21T08:46:07.864Z,100457.03
2023-04-21T08:48:55.117Z,100452.81
2023-04-21T08:51:40.705Z,100481.63
2023-04-21T08:54:26.369Z,100473.88
2023-04-21T08:57:15.818Z,100486.94
2023-04-21T09:00:01.618Z,100501.72
2023-04-21T09:03:02.269Z,100499.91
2023-04-21T09:05:58.384Z,100503.34
2023-04-21T09:08:53.435Z,100494.53
2023-04-21T09:11:38.777Z,100469.28
2023-04-21T09:14:31.837Z,100490.47
2023-04-21T09:17:18.350Z,100482.66
2023-04-21T09:20:19.647Z,100481.66
2023-04-21T09:23:05.513Z,100486.38
2023-04-21T09:25:50.506Z,100466.41
2023-04-21T09:28:35.996Z,100434.84
2023-04-21T09:31:24.182Z,100433.22
2023-04-21T09:34:26.466Z,100440.44
2023-04-21T09:37:14.169Z,100422.81
2023-04-21T09:42:48.498Z,100396.81
2023-04-21T09:45:40.089Z,100408.69
2023-04-21T09:48:32.137Z,100356.25
2023-04-21T09:54:29.151Z,100371.56
2023-04-21T09:57:20.976Z,100364.81
2023-04-21T10:00:07.795Z,100367.75
2023-04-21T10:02:54.541Z,100373.19
2023-04-21T10:05:42.334Z,100357.44
2023-04-21T10:08:49.629Z,100354.44
2023-04-21T10:11:35.653Z,100328.91
2023-04-21T10:14:21.373Z,100337.97
2023-04-21T10:17:09.435Z,100347.09
2023-04-21T10:19:57.558Z,100315.72
2023-04-21T10:22:43.436Z,100321.06
2023-04-21T10:25:29.923Z,100335.44
2023-04-21T10:28:18.649Z,100299.56
2023-04-21T10:31:17.088Z,100300.03
2023-04-21T10:34:05.179Z,100290.25
2023-04-21T10:36:56.743Z,100272.03
2023-04-21T10:39:53.901Z,100281.56
2023-04-21T10:42:39.163Z,100287.25
2023-04-21T10:45:27.491Z,100288.81
2023-04-21T10:48:13.842Z,100303.03
2023-04-21T10:50:58.798Z,100286.50
2023-04-21T10:53:44.209Z,100287.25
2023-04-21T10:56:29.696Z,100254.00
2023-04-21T10:59:15.708Z,100275.56
2023-04-21T11:02:00.992Z,100224.00
2023-04-21T11:04:51.386Z,100271.38
2023-04-21T11:07:36.787Z,100254.41
2023-04-21T11:10:22.277Z,100269.00
2023-04-21T11:13:07.876Z,100275.78
2023-04-21T11:16:06.814Z,100246.16
2023-04-21T11:18:51.902Z,100235.00
2023-04-21T11:21:37.385Z,100248.88
2023-04-21T11:24:23.512Z,100224.28
2023-04-21T11:27:08.723Z,100216.16
2023-04-21T11:29:53.820Z,100220.03
2023-04-21T11:32:39.199Z,100195.28
2023-04-21T11:35:25.244Z,100209.81
2023-04-21T11:38:10.262Z,100190.19
2023-04-21T11:40:55.603Z,100188.03
2023-04-21T11:43:45.578Z,100161.81
2023-04-21T11:46:31.049Z,100130.25
2023-04-21T11:49:16.430Z,100132.66
2023-04-21T11:52:01.760Z,100101.53
2023-04-21T11:54:47.494Z,100108.28
2023-04-21T11:57:33.826Z,100113.25
2023-04-21T12:00:19.841Z,100074.56
2023-04-21T12:03:09.189Z,100078.91
2023-04-21T12:05:56.523Z,100087.81
2023-04-21T12:08:41.738Z,100057.25
2023-04-21T12:11:28.590Z,100030.06
2023-04-21T12:14:15.156Z,100032.75
2023-04-21T12:17:00.781Z,100023.31
2023-04-21T12:19:46.407Z,99998.25
2023-04-21T12:22:31.788Z,100027.63
2023-04-21T12:25:17.175Z,100026.38
2023-04-21T12:28:02.240Z,100040.38
2023-04-21T12:30:47.690Z,100051.38
2023-04-21T12:33:33.539Z,100003.94
2023-04-21T12:36:18.982Z,100044.53
2023-04-21T12:39:04.352Z,100007.94
2023-04-21T12:41:49.618Z,99991.97
2023-04-21T12:44:34.726Z,100013.19
2023-04-21T12:47:19.847Z,100014.59
2023-04-21T12:50:05.977Z,100007.19
2023-04-21T12:52:51.194Z,100010.25
2023-04-21T12:55:36.715Z,99969.53
2023-04-21T12:58:22.083Z,99962.63
2023-04-21T13:01:07.648Z,99950.03
2023-04-21T13:03:53.157Z,99968.59
2023-04-21T13:06:39.157Z,100006.22
2023-04-21T13:09:24.380Z,99981.47
2023-04-21T13:12:09.267Z,99953.06
2023-04-21T13:14:54.553Z,99956.19
2023-04-21T13:17:40.556Z,99934.94
2023-04-21T13:20:25.671Z,99963.81
2023-04-21T13:23:11.061Z,99915.28
2023-04-21T13:25:55.913Z,99925.28
2023-04-21T13:28:41.525Z,99936.56
2023-04-21T13:31:26.844Z,99918.13
2023-04-21T13:34:11.942Z,99895.34
2023-04-21T13:36:57.427Z,99933.34
2023-04-21T13:39:43.473Z,99935.81
2023-04-21T13:42:28.806Z,99922.72
2023-04-21T13:45:13.624Z,99952.16
2023-04-21T13:47:59.113Z,99950.25
2023-04-21T13:50:44.371Z,99951.88
2023-04-21T13:53:29.738Z,99945.34
2023-04-21T13:56:14.656Z,99957.78
2023-04-21T13:59:00.018Z,99957.09
2023-04-21T14:01:45.462Z,99957.84
2023-04-21T14:04:30.857Z,99929.13
2023-04-21T14:07:16.182Z,99934.38
2023-04-21T14:10:01.916Z,99966.91
2023-04-21T14:12:47.070Z,99948.44
2023-04-21T14:15:32.520Z,99953.34
2023-04-21T14:18:18.027Z,99944.13
2023-04-21T14:21:04.239Z,99955.91
2023-04-21T14:23:49.208Z,99947.63
2023-04-21T14:26:36.026Z,99936.50
2023-04-21T14:29:22.470Z,99960.81
2023-04-21T14:32:07.652Z,99945.44
2023-04-21T14:34:53.010Z,99927.16
2023-04-21T14:37:38.975Z,99947.16
2023-04-21T14:40:24.660Z,99954.03
2023-04-21T14:43:09.776Z,99958.00
2023-04-21T14:45:55.137Z,99972.84
2023-04-21T14:48:40.457Z,99953.13
2023-04-21T14:51:25.641Z,99958.41
2023-04-21T14:54:10.679Z,99987.44
2023-04-21T14:57:06.702Z,99982.88
2023-04-21T15:00:00.794Z,99975.25
2023-04-21T15:02:46.263Z,99952.09
2023-04-21T15:05:31.493Z,99954.84
2023-04-21T15:08:16.793Z,99950.78
2023-04-21T15:11:02.549Z,99954.97
2023-04-21T15:13:48.219Z,99952.28
2023-04-21T15:16:33.576Z,99944.75
2023-04-21T15:19:18.941Z,99979.03
2023-04-21T15:22:04.017Z,99974.16
2023-04-21T15:24:49.218Z,99974.94
2023-04-21T15:27:34.625Z,99988.06
2023-04-21T15:30:20.155Z,99982.69
2023-04-21T15:33:05.612Z,99994.13
2023-04-21T15:35:50.802Z,100002.63
2023-04-21T15:38:36.199Z,100004.31
2023-04-21T15:41:21.527Z,99997.13
2023-04-21T15:44:07.109Z,99999.59
2023-04-21T15:46:52.411Z,99982.91
2023-04-21T15:49:37.937Z,99982.66
2023-04-21T15:52:23.167Z,99953.59
2023-04-21T15:55:10.880Z,99937.88
2023-04-21T15:57:56.243Z,99957.72
2023-04-21T16:00:41.774Z,99942.19
2023-04-21T16:03:27.625Z,99956.19
2023-04-21T16:06:13.087Z,99955.19
2023-04-21T16:08:58.435Z,99972.75
2023-04-21T16:11:43.765Z,99967.91
2023-04-21T16:14:36.152Z,99962.31
2023-04-21T16:17:28.402Z,99966.00
2023-04-21T16:20:13.881Z,99963.31
2023-04-21T16:22:59.234Z,99962.13
2023-04-21T16:25:44.490Z,99953.63
2023-04-21T16:28:29.752Z,99959.31
2023-04-21T16:31:15.162Z,99945.91
2023-04-21T16:34:00.740Z,99945.59
2023-04-21T16:36:46.072Z,99957.13
2023-04-21T16:39:31.683Z,99951.53
2023-04-21T16:42:17.033Z,99962.88
2023-04-21T16:45:02.845Z,99963.72
2023-04-21T16:47:48.025Z,99943.47
2023-04-21T16:50:33.562Z,99944.50
2023-04-21T16:53:18.747Z,99940.44
2023-04-21T16:56:04.140Z,99945.06
2023-04-21T16:58:49.258Z,99949.78
2023-04-21T17:01:34.640Z,99943.88
2023-04-21T17:04:21.061Z,99935.22
2023-04-21T17:07:06.394Z,99945.53
2023-04-21T17:09:51.897Z,99944.41
2023-04-21T17:12:37.404Z,99945.66
2023-04-21T17:15:22.747Z,99943.06
2023-04-21T17:18:08.382Z,99946.72
2023-04-21T17:20:53.798Z,99952.72
2023-04-21T17:23:39.201Z,99940.41
2023-04-21T17:26:24.632Z,99941.56
2023-04-21T17:29:10.262Z,99946.25
2023-04-21T17:31:55.779Z,99955.47
2023-04-21T17:34:41.208Z,99949.50
2023-04-21T17:37:26.717Z,99944.69
2023-04-21T17:40:12.594Z,99939.22
2023-04-21T17:42:57.827Z,99945.31
2023-04-21T17:45:45.092Z,99931.88
2023-04-21T17:48:30.506Z,99939.06
2023-04-21T17:51:15.871Z,99948.88
2023-04-21T17:54:01.309Z,99948.06
2023-04-21T17:56:46.834Z,99934.47
2023-04-21T17:59:32.193Z,99949.41
2023-04-21T18:02:18.080Z,99951.47
2023-04-21T18:05:04.234Z,99951.59
2023-04-21T18:07:49.607Z,99953.28
2023-04-21T18:10:36.322Z,99959.25
2023-04-21T18:13:21.908Z,99956.88
2023-04-21T18:16:07.388Z,99959.41
2023-04-21T18:18:52.587Z,99958.66
2023-04-21T18:21:38.200Z,99949.03
2023-04-21T18:24:23.593Z,99948.97
2023-04-21T18:27:08.941Z,99948.19
2023-04-21T18:29:54.367Z,99951.66
2023-04-21T18:32:40.190Z,99957.91
2023-04-21T18:35:25.569Z,99957.78
2023-04-21T18:38:10.975Z,99959.53
2023-04-21T18:40:56.340Z,99950.22
2023-04-21T18:43:41.835Z,99958.16
2023-04-21T18:46:26.946Z,99953.19
2023-04-21T18:49:12.385Z,99949.47
2023-04-21T18:51:57.720Z,99953.22
2023-04-21T18:54:43.097Z,99950.75
2023-04-21T18:57:28.483Z,99958.50
2023-04-21T19:00:14.302Z,99965.72
2023-04-21T19:03:00.638Z,99971.06
2023-04-21T19:05:45.836Z,99966.63
2023-04-21T19:08:42.197Z,99969.47
2023-04-21T19:11:28.834Z,99973.94
2023-04-21T19:14:13.798Z,99980.06
2023-04-21T19:16:59.284Z,99988.75
2023-04-21T19:19:44.670Z,99976.69
2023-04-21T19:22:30.047Z,99973.88
2023-04-21T19:25:15.592Z,99978.34
2023-04-21T19:28:00.990Z,99977.47
2023-04-21T19:30:46.392Z,99974.09
2023-04-21T19:33:31.883Z,99972.31
2023-04-21T19:36:17.252Z,99974.00
2023-04-21T19:39:02.591Z,99966.22
2023-04-21T19:41:48.044Z,99964.66
2023-04-21T19:44:34.011Z,99975.31
2023-04-21T19:47:19.156Z,99978.63
2023-04-21T19:50:05.167Z,99981.94
2023-04-21T19:52:50.200Z,99988.38
2023-04-21T19:55:35.686Z,99997.16
2023-04-21T19:58:38.235Z,100028.09
2023-04-21T20:01:24.534Z,100041.69
2023-04-21T20:04:12.116Z,100055.72
2023-04-21T20:06:57.783Z,100092.69
2023-04-21T20:09:43.208Z,100108.72
2023-04-21T20:12:28.664Z,100115.75
2023-04-21T20:15:14.182Z,100127.97
2023-04-21T20:17:59.643Z,100170.72
2023-04-21T20:20:45.095Z,100188.59
2023-04-21T20:23:30.588Z,100188.69
2023-04-21T20:26:16.611Z,100179.81
2023-04-21T20:29:01.478Z,100179.81
2023-04-21T20:31:46.883Z,100179.84
2023-04-21T20:34:32.222Z,100176.44
2023-04-21T20:37:17.710Z,100193.78
2023-04-21T20:40:03.701Z,100182.69
2023-04-21T20:42:48.900Z,100204.63
2023-04-21T20:45:34.286Z,100206.25
2023-04-21T20:48:19.746Z,100228.00
2023-04-21T20:51:05.387Z,100237.63
2023-04-21T20:53:50.740Z,100205.63
2023-04-21T20:56:36.133Z,100203.00
2023-04-21T20:59:21.620Z,100190.25
2023-04-21T21:02:07.546Z,100179.84
2023-04-21T21:04:52.853Z,100179.84
2023-04-21T21:07:38.145Z,100175.56
2023-04-21T21:10:23.821Z,100165.94
2023-04-21T21:13:09.308Z,100159.03
2023-04-21T21:15:54.763Z,100141.59
2023-04-21T21:18:40.307Z,100133.78
2023-04-21T21:21:25.676Z,100134.63
2023-04-21T21:24:10.983Z,100132.84
2023-04-21T21:26:56.372Z,100127.59
2023-04-21T21:29:41.833Z,100155.34
2023-04-21T21:32:27.379Z,100234.78
2023-04-21T21:35:12.612Z,100224.31
2023-04-21T21:37:58.109Z,100224.31
2023-04-21T21:40:43.526Z,100230.34
2023-04-21T21:43:29.015Z,100238.97
2023-04-21T21:46:14.766Z,100248.56
2023-04-21T21:48:59.935Z,100266.81
2023-04-21T21:51:45.272Z,100265.13
2023-04-21T21:54:31.047Z,100238.19
2023-04-21T21:57:16.576Z,100242.56
2023-04-21T22:00:01.931Z,100222.66
2023-04-21T22:02:47.377Z,100179.28
2023-04-21T22:05:32.546Z,100197.38
2023-04-21T22:08:17.828Z,100192.31
2023-04-21T22:11:03.338Z,100184.44
2023-04-21T22:13:48.703Z,100186.22
2023-04-21T22:16:34.318Z,100202.81
2023-04-21T22:19:19.720Z,100199.31
2023-04-21T22:22:04.812Z,100214.94
2023-04-21T22:24:50.202Z,100215.88
2023-04-21T22:27:35.537Z,100222.91
2023-04-21T22:30:20.928Z,100215.97
2023-04-21T22:33:06.171Z,100212.56
2023-04-21T22:35:51.353Z,100206.47
2023-04-21T22:38:36.830Z,100203.88
2023-04-21T22:41:22.198Z,100209.06
2023-04-21T22:44:07.635Z,100211.69
2023-04-21T22:46:53.130Z,100210.81
2023-04-21T22:49:39.098Z,100197.84
2023-04-21T22:52:24.531Z,100196.09
2023-04-21T22:55:10.258Z,100186.59
2023-04-21T22:57:55.239Z,100199.56
2023-04-21T23:00:40.243Z,100227.28
2023-04-21T23:03:25.419Z,100229.09
2023-04-21T23:06:10.730Z,100257.63
2023-04-21T23:08:55.735Z,100269.63
2023-04-21T23:11:41.343Z,100253.28
2023-04-21T23:14:26.424Z,100240.34
2023-04-21T23:17:11.763Z,100236.03
2023-04-21T23:19:56.739Z,100240.34
2023-04-21T23:22:42.111Z,100243.81
2023-04-21T23:25:27.707Z,100245.53
2023-04-21T23:28:13.122Z,100230.84
2023-04-21T23:30:58.804Z,100220.44
2023-04-21T23:33:44.020Z,100217.81
2023-04-21T23:36:29.241Z,100216.97
2023-04-21T23:39:14.194Z,100214.38
2023-04-21T23:41:59.566Z,100220.41
2023-04-21T23:44:45.154Z,100206.59
2023-04-21T23:47:29.928Z,100207.44
2023-04-21T23:50:15.124Z,100208.31
2023-04-21T23:53:00.495Z,100205.75
2023-04-21T23:55:45.931Z,100186.69
2023-04-21T23:58:31.406Z,100212.66
